Time;durP1;ratioP1;P1;durP2;ratioP2;P2;SDS_P1;SDS_P2;PMS_P1;PMS_P2;Temp;Humidity;BMP_temperature;BMP_pressure;BME280_temperature;BME280_humidity;BME280_pressure;Samples;Min_cycle;Max_cycle;Signal;HPM_P1;HPM_P2
2023/11/14 00:00:29;;;;;;;16.02;2.53;;;;;;;9.76;100.00;99415.06;5048939;28;20048;-72
2023/11/14 00:03:00;;;;;;;16.20;2.45;;;;;;;9.70;100.00;99425.16;5041372;28;20048;-74
2023/11/14 00:05:34;;;;;;;13.38;2.53;;;;;;;9.57;100.00;99413.63;5045084;28;20263;-73
2023/11/14 00:08:02;;;;;;;12.38;2.53;;;;;;;9.57;100.00;99417.13;5032063;28;20052;-72
2023/11/14 00:10:32;;;;;;;12.95;2.55;;;;;;;9.62;100.00;99432.69;5044605;28;20072;-73
2023/11/14 00:13:00;;;;;;;14.02;2.83;;;;;;;9.60;100.00;99429.31;5057020;28;20045;-73
2023/11/14 00:15:31;;;;;;;13.82;2.30;;;;;;;9.43;100.00;99425.84;5046101;28;20144;-73
2023/11/14 00:18:01;;;;;;;16.70;3.22;;;;;;;9.48;100.00;99442.28;5052701;28;20060;-73
2023/11/14 00:20:29;;;;;;;15.17;2.60;;;;;;;9.49;100.00;99437.84;5035814;28;20255;-73
2023/11/14 00:22:59;;;;;;;13.30;2.58;;;;;;;9.35;100.00;99425.41;5042136;28;20052;-73
2023/11/14 00:25:28;;;;;;;12.77;2.40;;;;;;;9.35;100.00;99433.34;5054593;28;20057;-73
2023/11/14 00:27:56;;;;;;;18.45;3.08;;;;;;;9.39;100.00;99442.81;5039101;28;20059;-72
2023/11/14 00:30:24;;;;;;;17.13;3.70;;;;;;;9.35;100.00;99436.00;5060489;28;20041;-73
2023/11/14 00:32:53;;;;;;;17.73;2.72;;;;;;;9.36;100.00;99450.06;5044249;28;20057;-73
2023/11/14 00:35:22;;;;;;;18.75;2.58;;;;;;;9.41;100.00;99450.66;5066910;28;20071;-73
2023/11/14 00:37:54;;;;;;;;;;;;;;;9.48;100.00;99463.41;5033171;28;20059;-73
2023/11/14 00:40:28;;;;;;;;;;;;;;;9.58;100.00;99458.47;5039843;28;19925;-72
2023/11/14 00:42:56;;;;;;;16.02;2.33;;;;;;;9.47;100.00;99456.41;5059209;28;19928;-73
2023/11/14 00:45:27;;;;;;;17.05;3.33;;;;;;;9.49;100.00;99474.84;5054709;28;20056;-75
2023/11/14 00:47:56;;;;;;;15.45;2.35;;;;;;;9.42;100.00;99474.34;5041493;28;20045;-73
2023/11/14 00:50:26;;;;;;;16.00;2.45;;;;;;;9.35;100.00;99472.97;5071797;28;20052;-73
2023/11/14 00:52:54;;;;;;;19.98;2.83;;;;;;;9.34;100.00;99473.91;5059581;28;20500;-74
2023/11/14 00:55:22;;;;;;;15.00;2.67;;;;;;;9.29;100.00;99460.09;5060970;28;20037;-73
2023/11/14 00:57:51;;;;;;;13.05;3.00;;;;;;;9.26;100.00;99454.16;5040847;28;20062;-72
2023/11/14 01:00:21;;;;;;;15.88;2.78;;;;;;;9.28;100.00;99462.84;5039884;28;20045;-73
2023/11/14 01:02:53;;;;;;;17.52;2.55;;;;;;;9.28;100.00;99466.34;5050243;28;20497;-74
2023/11/14 01:05:23;;;;;;;12.50;2.38;;;;;;;9.28;100.00;99458.44;5025245;28;20351;-73
2023/11/14 01:07:54;;;;;;;15.13;2.55;;;;;;;9.24;100.00;99464.81;5044999;28;20603;-72
2023/11/14 01:10:23;;;;;;;16.63;2.78;;;;;;;9.26;100.00;99459.44;5074435;28;20041;-72
2023/11/14 01:12:52;;;;;;;17.58;2.65;;;;;;;9.16;100.00;99445.88;5055033;28;20482;-71
2023/11/14 01:15:20;;;;;;;12.00;2.40;;;;;;;9.30;100.00;99459.16;5053042;28;20730;-72
2023/11/14 01:17:48;;;;;;;15.13;1.90;;;;;;;9.27;100.00;99454.09;5042616;28;20122;-72
2023/11/14 01:20:20;;;;;;;16.25;2.63;;;;;;;9.33;100.00;99472.22;5051318;28;20509;-71
2023/11/14 01:22:49;;;;;;;15.13;2.55;;;;;;;9.29;100.00;99456.59;5052033;28;20417;-73
2023/11/14 01:25:19;;;;;;;13.70;2.85;;;;;;;9.34;100.00;99466.00;5053994;28;20105;-74
2023/11/14 01:27:48;;;;;;;19.55;2.80;;;;;;;9.33;100.00;99464.28;5045325;28;20037;-73
2023/11/14 01:30:16;;;;;;;16.58;2.50;;;;;;;9.36;100.00;99463.25;5069140;28;20076;-72
2023/11/14 01:32:46;;;;;;;17.00;2.30;;;;;;;9.36;100.00;99450.91;5050902;28;20052;-72
2023/11/14 01:35:14;;;;;;;15.48;2.65;;;;;;;9.38;100.00;99443.75;5069717;28;20055;-72
2023/11/14 01:37:42;;;;;;;18.60;2.70;;;;;;;9.47;100.00;99447.63;5028423;28;20048;-72
2023/11/14 01:40:50;;;;;;;13.40;2.70;;;;;;;9.48;100.00;99434.34;5055826;28;20091;-72
2023/11/14 01:43:19;;;;;;;23.77;3.15;;;;;;;9.50;100.00;99450.09;5065003;28;20498;-73
2023/11/14 01:45:49;;;;;;;13.85;2.47;;;;;;;9.49;100.00;99445.75;5041840;28;20044;-73
2023/11/14 01:48:20;;;;;;;19.88;3.28;;;;;;;9.36;100.00;99435.06;5041577;28;20106;-72
2023/11/14 01:50:49;;;;;;;19.92;2.85;;;;;;;9.38;100.00;99443.75;5046273;28;20437;-73
2023/11/14 01:53:20;;;;;;;11.57;2.55;;;;;;;9.30;100.00;99438.03;5050839;28;20053;-72
2023/11/14 01:55:50;;;;;;;16.08;2.88;;;;;;;9.44;100.00;99448.66;5048830;28;20296;-72
2023/11/14 01:58:19;;;;;;;19.40;3.00;;;;;;;9.44;100.00;99453.13;5040145;28;20091;-72
2023/11/14 02:00:48;;;;;;;17.92;3.00;;;;;;;9.45;100.00;99453.00;5045787;28;20096;-73
2023/11/14 02:03:16;;;;;;;17.00;2.58;;;;;;;9.49;100.00;99453.69;5046744;28;20053;-73
2023/11/14 02:05:47;;;;;;;15.43;2.65;;;;;;;9.47;100.00;99451.13;5047746;28;20421;-73
2023/11/14 02:08:23;;;;;;;20.30;2.75;;;;;;;9.51;100.00;99459.75;5043988;28;20084;-71
2023/11/14 02:10:53;;;;;;;15.25;2.35;;;;;;;9.50;100.00;99463.31;5054742;28;20119;-71
2023/11/14 02:13:21;;;;;;;15.68;2.50;;;;;;;9.51;100.00;99459.75;5049708;28;20110;-73
2023/11/14 02:15:49;;;;;;;16.38;2.28;;;;;;;9.40;100.00;99441.03;5070625;28;20041;-72
2023/11/14 02:18:20;;;;;;;15.70;2.60;;;;;;;9.48;100.00;99452.84;5035752;28;20140;-72
2023/11/14 02:20:49;;;;;;;16.05;2.17;;;;;;;9.45;100.00;99442.44;5047581;28;20045;-72
2023/11/14 02:23:18;;;;;;;15.25;2.83;;;;;;;9.46;100.00;99448.56;5039468;28;20052;-71
2023/11/14 02:25:48;;;;;;;20.08;2.88;;;;;;;9.41;100.00;99445.38;5044197;28;20056;-72
2023/11/14 02:28:17;;;;;;;17.00;3.40;;;;;;;9.43;100.00;99454.91;5042239;28;20408;-72
2023/11/14 02:30:47;;;;;;;21.05;2.78;;;;;;;9.39;100.00;99463.94;5044070;28;20056;-72
2023/11/14 02:33:16;;;;;;;22.83;2.95;;;;;;;9.32;100.00;99467.00;5049554;28;20111;-72
2023/11/14 02:35:45;;;;;;;11.80;2.45;;;;;;;9.32;100.00;99480.22;5049547;28;20111;-71
2023/11/14 02:38:37;;;;;;;15.25;2.90;;;;;;;9.31;100.00;99481.16;5043984;28;20052;-71
2023/11/14 02:41:08;;;;;;;21.55;2.72;;;;;;;9.25;100.00;99463.88;5049887;28;20061;-72
2023/11/14 02:43:39;;;;;;;15.65;2.97;;;;;;;9.27;100.00;99466.44;5049157;28;20045;-72
2023/11/14 02:46:10;;;;;;;21.45;3.80;;;;;;;9.27;100.00;99499.00;5044647;28;20037;-71
2023/11/14 02:48:39;;;;;;;18.27;2.63;;;;;;;9.34;100.00;99516.19;5041834;28;20040;-72
2023/11/14 02:51:09;;;;;;;18.08;2.50;;;;;;;9.28;100.00;99502.50;5043974;28;20045;-73
2023/11/14 02:53:37;;;;;;;17.95;2.55;;;;;;;9.32;100.00;99520.69;5050360;28;20044;-72
2023/11/14 02:56:08;;;;;;;19.50;2.80;;;;;;;9.29;100.00;99525.28;5028930;28;20047;-73
2023/11/14 02:58:39;;;;;;;18.13;2.45;;;;;;;9.22;100.00;99510.75;5045688;28;20105;-72
2023/11/14 03:01:07;;;;;;;19.75;2.78;;;;;;;9.33;100.00;99521.56;5049727;28;20149;-73
2023/11/14 03:03:35;;;;;;;21.13;2.17;;;;;;;9.28;100.00;99513.06;5053441;28;20474;-71
2023/11/14 03:06:05;;;;;;;10.57;2.30;;;;;;;9.32;100.00;99525.13;5051548;28;20110;-73
2023/11/14 03:08:34;;;;;;;19.50;3.17;;;;;;;9.22;100.00;99530.09;5026105;28;20695;-72
2023/11/14 03:11:03;;;;;;;20.38;3.40;;;;;;;9.24;100.00;99535.28;5029820;28;20096;-72
2023/11/14 03:13:36;;;;;;;17.95;3.42;;;;;;;9.18;100.00;99523.25;5049456;28;20080;-73
2023/11/14 03:16:04;;;;;;;18.45;2.88;;;;;;;9.27;100.00;99538.63;5044462;28;20052;-72
2023/11/14 03:18:34;;;;;;;14.43;2.55;;;;;;;9.35;100.00;99533.75;5043936;28;20056;-72
2023/11/14 03:21:04;;;;;;;26.23;3.58;;;;;;;9.44;100.00;99533.22;5031893;28;20045;-72
2023/11/14 03:23:32;;;;;;;20.02;2.97;;;;;;;9.48;100.00;99523.34;5045919;28;20053;-71
2023/11/14 03:26:00;;;;;;;17.73;2.72;;;;;;;9.50;100.00;99543.47;5048360;28;20636;-73
2023/11/14 03:28:31;;;;;;;14.20;2.80;;;;;;;9.56;100.00;99544.91;5056499;28;20045;-72
2023/11/14 03:31:01;;;;;;;20.23;3.17;;;;;;;9.56;100.00;99542.28;5046086;28;20647;-73
2023/11/14 03:33:30;;;;;;;27.45;2.63;;;;;;;9.54;100.00;99552.06;5049324;28;20226;-72
2023/11/14 03:35:58;;;;;;;26.48;3.03;;;;;;;9.44;100.00;99543.78;5045401;28;20506;-73
2023/11/14 03:38:26;;;;;;;16.92;2.55;;;;;;;9.48;100.00;99553.25;5046505;28;20111;-73
2023/11/14 03:40:55;;;;;;;20.77;3.28;;;;;;;9.38;100.00;99543.31;5043664;28;20045;-73
2023/11/14 03:43:23;;;;;;;14.80;2.58;;;;;;;9.36;100.00;99561.03;5039920;28;20374;-72
2023/11/14 03:45:51;;;;;;;19.45;2.60;;;;;;;9.27;100.00;99561.53;5030369;28;20045;-72
2023/11/14 03:48:21;;;;;;;18.85;2.60;;;;;;;9.28;100.00;99555.31;5058182;28;20045;-72
2023/11/14 03:50:49;;;;;;;16.13;2.85;;;;;;;9.36;100.00;99574.22;5043533;28;20049;-73
2023/11/14 03:53:20;;;;;;;20.02;2.97;;;;;;;9.33;100.00;99567.31;5050706;28;20076;-73
2023/11/14 03:55:48;;;;;;;17.35;2.55;;;;;;;9.38;100.00;99562.66;5031465;28;20049;-73
2023/11/14 03:58:18;;;;;;;19.20;3.00;;;;;;;9.42;100.00;99571.25;5039245;28;20055;-72
2023/11/14 04:00:50;;;;;;;17.48;2.67;;;;;;;9.36;100.00;99564.53;5035440;28;20296;-73
2023/11/14 04:03:18;;;;;;;21.70;3.17;;;;;;;9.34;100.00;99574.31;5041667;28;20060;-73
2023/11/14 04:05:49;;;;;;;17.15;3.20;;;;;;;9.27;100.00;99569.47;5041326;28;20045;-73
2023/11/14 04:08:18;;;;;;;17.88;2.33;;;;;;;9.27;100.00;99585.31;5049515;28;20460;-72
2023/11/14 04:10:48;;;;;;;17.73;2.58;;;;;;;9.22;100.00;99592.63;5041479;28;20160;-73
2023/11/14 04:13:16;;;;;;;13.80;2.40;;;;;;;9.15;100.00;99563.03;5052664;28;20041;-72
2023/11/14 04:15:45;;;;;;;21.23;3.13;;;;;;;9.06;100.00;99548.56;5048618;28;20041;-73
2023/11/14 04:18:13;;;;;;;20.60;2.40;;;;;;;9.15;100.00;99550.69;5047581;28;20072;-74
2023/11/14 04:20:43;;;;;;;19.15;2.83;;;;;;;9.25;100.00;99564.25;5062260;28;20053;-72
2023/11/14 04:23:12;;;;;;;14.65;2.63;;;;;;;9.30;100.00;99558.69;5061301;28;20044;-73
2023/11/14 04:25:40;;;;;;;15.57;2.47;;;;;;;9.32;100.00;99560.34;5067607;28;20509;-73
2023/11/14 04:28:08;;;;;;;18.38;2.45;;;;;;;9.32;100.00;99551.56;5053087;28;20505;-73
2023/11/14 04:30:39;;;;;;;22.85;2.92;;;;;;;9.43;100.00;99563.25;5064094;28;20049;-73
2023/11/14 04:33:10;;;;;;;25.42;3.53;;;;;;;9.39;100.00;99548.50;5050696;28;20041;-73
2023/11/14 04:35:38;;;;;;;16.77;2.70;;;;;;;9.30;100.00;99548.13;5054872;28;20044;-74
2023/11/14 04:38:06;;;;;;;22.77;2.75;;;;;;;9.41;100.00;99549.28;5051687;28;20049;-72
2023/11/14 04:40:38;;;;;;;19.42;2.78;;;;;;;9.40;100.00;99544.94;5043258;28;20164;-74
2023/11/14 04:43:10;;;;;;;18.20;2.55;;;;;;;9.50;100.00;99556.66;5042562;28;20045;-73
2023/11/14 04:45:42;;;;;;;16.67;2.90;;;;;;;9.49;100.00;99551.47;5058213;28;20132;-73
2023/11/14 04:48:13;;;;;;;21.90;3.28;;;;;;;9.47;100.00;99548.06;5056610;28;20045;-72
2023/11/14 04:50:47;;;;;;;16.77;2.53;;;;;;;9.57;100.00;99559.84;5043179;28;20048;-73
2023/11/14 04:53:16;;;;;;;17.52;2.60;;;;;;;9.54;100.00;99554.72;5053347;28;20701;-73
2023/11/14 04:55:50;;;;;;;24.13;3.00;;;;;;;9.62;100.00;99567.50;5050146;28;20077;-73
2023/11/14 04:58:19;;;;;;;16.92;2.63;;;;;;;9.54;100.00;99545.94;5047499;28;20049;-73
2023/11/14 05:00:47;;;;;;;19.15;2.55;;;;;;;9.61;100.00;99550.78;5028258;28;20037;-73
2023/11/14 05:03:17;;;;;;;18.88;2.85;;;;;;;9.67;100.00;99550.44;5036157;28;20060;-73
2023/11/14 05:05:46;;;;;;;19.20;2.88;;;;;;;9.69;100.00;99558.28;5047834;28;20053;-73
2023/11/14 05:08:15;;;;;;;20.85;3.17;;;;;;;9.60;100.00;99559.63;5052574;28;20049;-73
2023/11/14 05:10:46;;;;;;;19.55;2.70;;;;;;;9.61;100.00;99573.72;5042800;28;20129;-73
2023/11/14 05:13:17;;;;;;;16.63;3.15;;;;;;;9.54;100.00;99567.09;5053864;28;20055;-75
2023/11/14 05:15:46;;;;;;;17.05;2.90;;;;;;;9.56;100.00;99566.06;5063694;28;20753;-74
2023/11/14 05:18:20;;;;;;;16.17;2.50;;;;;;;9.64;100.00;99555.03;5053016;28;20067;-73
2023/11/14 05:20:49;;;;;;;17.45;3.20;;;;;;;9.62;100.00;99564.84;5044574;28;20036;-74
2023/11/14 05:23:18;;;;;;;21.73;3.22;;;;;;;9.62;100.00;99555.13;5056189;28;20493;-74
2023/11/14 05:25:48;;;;;;;17.67;3.10;;;;;;;9.72;100.00;99566.91;5062117;28;20077;-73
2023/11/14 05:28:17;;;;;;;18.67;3.10;;;;;;;9.67;100.00;99562.81;5046896;28;20061;-73
2023/11/14 05:30:46;;;;;;;16.60;2.70;;;;;;;9.71;100.00;99573.13;5036440;28;20064;-75
2023/11/14 05:33:25;;;;;;;15.88;2.65;;;;;;;9.31;100.00;99503.13;5047874;28;20073;-75
2023/11/14 05:35:54;;;;;;;21.70;3.20;;;;;;;9.80;100.00;99575.25;5029976;28;21216;-74
2023/11/14 05:38:22;;;;;;;15.52;3.03;;;;;;;9.81;100.00;99565.53;5040956;28;20045;-74
2023/11/14 05:40:51;;;;;;;19.88;3.33;;;;;;;9.86;100.00;99576.69;5043983;28;20043;-74
2023/11/14 05:43:24;;;;;;;17.85;2.92;;;;;;;9.86;100.00;99584.63;5047168;28;20131;-74
2023/11/14 05:45:53;;;;;;;18.50;2.97;;;;;;;9.77;100.00;99563.97;5056451;28;20053;-73
2023/11/14 05:48:21;;;;;;;24.42;3.13;;;;;;;9.87;100.00;99564.31;5043770;28;20052;-73
2023/11/14 05:50:50;;;;;;;18.63;2.75;;;;;;;9.85;100.00;99567.06;5038845;28;20052;-74
2023/11/14 05:53:19;;;;;;;20.40;3.03;;;;;;;9.80;100.00;99571.75;5029536;28;20558;-74
2023/11/14 05:55:48;;;;;;;21.10;3.30;;;;;;;9.85;100.00;99578.50;5040026;28;20123;-74
2023/11/14 05:58:16;;;;;;;19.80;3.23;;;;;;;9.79;100.00;99570.88;5045684;28;20103;-74
2023/11/14 06:00:46;;;;;;;18.88;3.60;;;;;;;9.82;100.00;99583.94;5054681;28;20129;-75
2023/11/14 06:03:14;;;;;;;19.17;2.65;;;;;;;9.83;100.00;99584.78;5050128;28;20080;-75
2023/11/14 06:05:43;;;;;;;14.25;2.83;;;;;;;9.84;100.00;99584.72;5032618;28;20053;-74
2023/11/14 06:08:13;;;;;;;19.98;2.45;;;;;;;9.79;100.00;99575.31;5071032;28;20048;-74
2023/11/14 06:10:44;;;;;;;16.70;2.90;;;;;;;9.86;100.00;99589.91;5047620;28;20048;-73
2023/11/14 06:13:13;;;;;;;20.10;2.92;;;;;;;9.93;100.00;99579.81;5048127;28;20502;-74
2023/11/14 06:15:41;;;;;;;17.05;2.95;;;;;;;9.95;100.00;99593.81;5047663;28;20041;-75
2023/11/14 06:18:14;;;;;;;23.40;2.83;;;;;;;9.97;100.00;99587.50;5041388;28;20060;-74
2023/11/14 06:20:45;;;;;;;24.25;3.05;;;;;;;9.98;100.00;99541.59;5035419;28;20124;-74
2023/11/14 06:23:17;;;;;;;15.45;2.55;;;;;;;9.93;100.00;99548.94;5049388;28;20048;-74
2023/11/14 06:25:48;;;;;;;14.18;2.92;;;;;;;9.93;100.00;99554.22;5046374;28;20049;-74
2023/11/14 06:28:17;;;;;;;17.02;3.03;;;;;;;9.87;100.00;99569.63;5046531;28;20045;-73
2023/11/14 06:30:45;;;;;;;11.77;2.45;;;;;;;10.00;100.00;99591.78;5045247;28;20050;-74
2023/11/14 06:33:17;;;;;;;16.73;2.75;;;;;;;10.06;100.00;99587.00;5084362;28;20103;-74
2023/11/14 06:35:47;;;;;;;16.45;3.53;;;;;;;10.06;100.00;99581.69;5047305;28;20118;-74
2023/11/14 06:38:16;;;;;;;14.00;2.50;;;;;;;10.21;100.00;99571.19;5039849;28;20051;-74
2023/11/14 06:40:47;;;;;;;17.70;3.72;;;;;;;10.24;100.00;99563.06;5039210;28;20529;-74
2023/11/14 06:43:15;;;;;;;14.25;2.90;;;;;;;10.24;100.00;99573.63;5047548;28;20042;-73
2023/11/14 06:45:46;;;;;;;20.88;3.40;;;;;;;10.32;100.00;99587.28;5036541;28;20060;-74
2023/11/14 06:48:16;;;;;;;14.52;2.90;;;;;;;10.34;100.00;99601.28;5039280;28;20067;-73
2023/11/14 06:50:44;;;;;;;19.45;2.83;;;;;;;10.35;100.00;99606.50;5036263;28;20576;-74
2023/11/14 06:53:15;;;;;;;14.88;2.80;;;;;;;10.39;100.00;99613.28;5046045;28;20048;-73
2023/11/14 06:55:44;;;;;;;16.38;3.25;;;;;;;10.45;100.00;99633.25;5041372;28;20033;-73
2023/11/14 06:58:13;;;;;;;12.60;2.53;;;;;;;10.58;100.00;99620.16;5047462;28;20040;-73
2023/11/14 07:00:42;;;;;;;20.00;3.08;;;;;;;10.64;100.00;99602.13;5022897;28;20045;-72
2023/11/14 07:03:10;;;;;;;17.55;3.58;;;;;;;10.67;100.00;99614.34;5040384;28;20037;-73
2023/11/14 07:05:40;;;;;;;13.93;2.42;;;;;;;10.73;100.00;99620.09;5042367;28;20045;-74
2023/11/14 07:08:10;;;;;;;11.13;2.33;;;;;;;10.72;100.00;99626.34;5041467;28;20084;-75
2023/11/14 07:10:38;;;;;;;11.30;2.75;;;;;;;10.78;100.00;99631.28;5033986;28;20076;-73
2023/11/14 07:13:07;;;;;;;20.88;3.10;;;;;;;10.86;100.00;99636.94;5042209;28;20049;-73
2023/11/14 07:15:39;;;;;;;11.80;2.17;;;;;;;10.89;100.00;99639.41;5040284;28;20045;-74
2023/11/14 07:18:09;;;;;;;12.63;2.28;;;;;;;11.00;100.00;99628.19;5060142;28;20326;-73
2023/11/14 07:20:38;;;;;;;11.45;2.67;;;;;;;11.08;100.00;99620.63;5041647;28;20049;-73
2023/11/14 07:23:11;;;;;;;16.05;2.78;;;;;;;10.88;100.00;99586.53;5053356;28;20049;-73
2023/11/14 07:25:43;;;;;;;16.80;2.70;;;;;;;11.11;100.00;99624.88;5051973;28;20081;-73
2023/11/14 07:28:12;;;;;;;13.95;2.60;;;;;;;11.15;100.00;99605.19;5041873;28;20040;-72
2023/11/14 07:30:42;;;;;;;14.18;2.72;;;;;;;11.03;100.00;99601.50;5053364;28;20052;-73
2023/11/14 07:33:13;;;;;;;13.07;2.60;;;;;;;11.21;100.00;99632.16;5056049;28;20068;-73
2023/11/14 07:35:44;;;;;;;17.05;3.65;;;;;;;11.24;100.00;99637.28;5046113;28;20053;-72
2023/11/14 07:38:14;;;;;;;17.48;2.90;;;;;;;11.32;100.00;99635.97;5046885;28;20045;-74
2023/11/14 07:40:43;;;;;;;21.02;3.08;;;;;;;11.45;100.00;99647.50;5033082;28;20045;-74
2023/11/14 07:43:14;;;;;;;14.55;2.78;;;;;;;11.47;100.00;99643.81;5044454;28;20056;-74
2023/11/14 07:45:43;;;;;;;10.75;2.25;;;;;;;11.54;100.00;99639.81;5046607;28;20044;-73
2023/11/14 07:48:11;;;;;;;15.50;2.53;;;;;;;11.49;100.00;99644.53;5045508;28;20469;-74
2023/11/14 07:50:44;;;;;;;14.23;2.00;;;;;;;11.63;100.00;99664.91;5045810;28;20041;-74
2023/11/14 07:53:17;;;;;;;14.63;2.75;;;;;;;11.66;100.00;99647.94;5054731;28;20057;-73
2023/11/14 07:55:46;;;;;;;16.88;3.03;;;;;;;11.79;100.00;99667.50;5045018;28;20463;-72
2023/11/14 07:58:16;;;;;;;18.63;3.00;;;;;;;11.82;100.00;99675.22;5048552;28;20173;-74
2023/11/14 08:00:47;;;;;;;13.25;3.45;;;;;;;11.81;100.00;99697.41;5042594;28;20045;-73
2023/11/14 08:03:20;;;;;;;17.60;2.70;;;;;;;11.76;100.00;99670.34;5045879;28;20056;-73
2023/11/14 08:05:48;;;;;;;14.75;2.60;;;;;;;11.79;100.00;99659.53;5046028;28;20053;-74
2023/11/14 08:08:22;;;;;;;14.55;2.78;;;;;;;11.86;100.00;99663.47;5047768;28;20056;-74
2023/11/14 08:10:51;;;;;;;12.27;2.25;;;;;;;11.83;100.00;99680.44;5043196;28;20464;-73
2023/11/14 08:13:22;;;;;;;16.90;3.15;;;;;;;11.82;100.00;99665.47;5045489;28;20045;-73
2023/11/14 08:15:53;;;;;;;18.70;2.88;;;;;;;11.83;100.00;99615.91;5039502;28;20033;-72
2023/11/14 08:18:23;;;;;;;16.85;2.97;;;;;;;11.77;100.00;99595.13;5043371;28;20041;-74
2023/11/14 08:20:54;;;;;;;21.55;2.53;;;;;;;11.80;100.00;99624.09;5052057;28;20068;-73
2023/11/14 08:23:25;;;;;;;17.27;2.92;;;;;;;11.88;100.00;99609.38;5053334;28;20033;-72
2023/11/14 08:25:54;;;;;;;14.93;3.40;;;;;;;11.90;100.00;99593.38;5051548;28;20072;-73
2023/11/14 08:28:23;;;;;;;14.07;2.55;;;;;;;11.89;100.00;99589.84;5029162;28;20144;-74
2023/11/14 08:30:51;;;;;;;16.08;2.58;;;;;;;11.92;100.00;99576.41;5033022;28;20409;-74
2023/11/14 08:33:20;;;;;;;19.15;2.53;;;;;;;11.90;100.00;99588.91;5062645;28;20041;-73
2023/11/14 08:35:50;;;;;;;15.95;3.20;;;;;;;11.95;100.00;99591.28;5038343;28;22497;-74
2023/11/14 08:38:21;;;;;;;15.77;2.42;;;;;;;11.89;100.00;99568.63;5046834;28;20402;-73
2023/11/14 08:40:55;;;;;;;16.73;2.65;;;;;;;11.99;100.00;99599.84;5042849;28;20130;-73
2023/11/14 08:43:24;;;;;;;15.27;3.05;;;;;;;12.00;100.00;99610.38;5060423;28;20048;-74
2023/11/14 08:45:57;;;;;;;11.45;2.90;;;;;;;12.06;100.00;99625.91;5047513;28;20044;-73
2023/11/14 08:48:26;;;;;;;18.30;3.08;;;;;;;12.14;100.00;99644.81;5049067;28;20044;-74
2023/11/14 08:50:56;;;;;;;16.60;3.13;;;;;;;12.12;100.00;99652.03;5038772;28;20053;-73
2023/11/14 08:53:29;;;;;;;15.13;2.67;;;;;;;12.01;100.00;99643.91;5049111;28;20049;-75
2023/11/14 08:55:59;;;;;;;15.50;3.05;;;;;;;12.17;100.00;99654.41;5048622;28;20410;-72
2023/11/14 08:58:28;;;;;;;12.88;2.22;;;;;;;12.10;100.00;99646.00;5049764;28;20044;-73
2023/11/14 09:00:58;;;;;;;21.48;2.53;;;;;;;12.01;100.00;99628.00;5042597;28;20047;-73
2023/11/14 09:03:28;;;;;;;15.77;2.70;;;;;;;12.24;100.00;99656.56;5044898;28;20045;-73
2023/11/14 09:05:56;;;;;;;10.93;1.90;;;;;;;12.26;100.00;99652.00;5048551;28;20048;-71
2023/11/14 09:08:24;;;;;;;20.45;2.92;;;;;;;12.29;100.00;99654.44;5061120;28;20041;-73
2023/11/14 09:10:52;;;;;;;19.10;2.92;;;;;;;12.22;100.00;99634.56;5043264;28;20072;-72
2023/11/14 09:13:24;;;;;;;18.00;2.72;;;;;;;12.28;100.00;99628.84;5052242;28;20045;-73
2023/11/14 09:15:54;;;;;;;12.65;2.22;;;;;;;12.23;100.00;99617.69;5047660;28;20048;-72
2023/11/14 09:18:25;;;;;;;15.43;2.92;;;;;;;12.26;100.00;99620.16;5060123;28;20055;-76
2023/11/14 09:20:55;;;;;;;13.35;2.33;;;;;;;12.37;100.00;99635.34;5061324;28;20045;-77
2023/11/14 09:23:25;;;;;;;13.32;2.33;;;;;;;12.38;100.00;99631.75;5051878;28;20050;-77
2023/11/14 09:25:54;;;;;;;14.10;2.50;;;;;;;12.46;100.00;99618.81;5074477;28;20117;-73
2023/11/14 09:28:25;;;;;;;14.90;2.42;;;;;;;12.56;100.00;99616.41;5034998;28;20052;-73
2023/11/14 09:30:58;;;;;;;11.82;2.58;;;;;;;12.46;100.00;99613.50;5042662;28;20048;-73
2023/11/14 09:33:26;;;;;;;15.15;2.58;;;;;;;12.36;100.00;99608.91;5023838;28;20038;-73
2023/11/14 09:35:54;;;;;;;13.35;2.35;;;;;;;12.36;100.00;99638.13;5038665;28;20037;-73
2023/11/14 09:38:23;;;;;;;11.70;2.70;;;;;;;12.36;100.00;99648.72;5041715;28;20095;-74
2023/11/14 09:40:51;;;;;;;20.02;3.40;;;;;;;12.36;100.00;99654.03;5044681;28;20394;-74
2023/11/14 09:43:21;;;;;;;15.63;2.47;;;;;;;12.45;100.00;99664.03;5039002;28;20049;-72
2023/11/14 09:45:51;;;;;;;16.75;2.40;;;;;;;12.43;100.00;99655.34;5034656;28;20052;-73
2023/11/14 09:48:20;;;;;;;13.40;1.95;;;;;;;12.43;100.00;99660.66;5048653;28;20581;-74
2023/11/14 09:50:49;;;;;;;15.48;2.47;;;;;;;12.39;100.00;99659.16;5045430;28;20048;-73
2023/11/14 09:53:23;;;;;;;15.68;3.03;;;;;;;12.40;100.00;99640.47;5033376;28;20041;-72
2023/11/14 09:55:53;;;;;;;10.43;1.98;;;;;;;12.49;100.00;99615.09;5038393;28;20052;-73
2023/11/14 09:58:21;;;;;;;11.07;2.08;;;;;;;12.58;100.00;99617.16;5057645;28;20046;-73
2023/11/14 10:00:52;;;;;;;16.20;3.70;;;;;;;12.59;100.00;99611.72;5040632;28;20045;-73
2023/11/14 10:03:24;;;;;;;10.55;2.35;;;;;;;12.50;100.00;99624.75;5037581;28;20481;-73
2023/11/14 10:05:52;;;;;;;9.45;2.72;;;;;;;12.48;100.00;99631.97;5045889;28;20048;-73
2023/11/14 10:08:26;;;;;;;13.90;2.73;;;;;;;12.48;100.00;99642.59;5042702;28;21115;-73
2023/11/14 10:11:12;;;;;;;11.80;2.53;;;;;;;12.50;100.00;99664.59;5048290;28;20574;-73
2023/11/14 10:13:45;;;;;;;12.40;2.70;;;;;;;12.42;100.00;99649.19;5037410;28;20084;-72
2023/11/14 10:16:22;;;;;;;18.50;2.70;;;;;;;12.41;100.00;99676.69;5044066;28;20382;-73
2023/11/14 10:18:52;;;;;;;20.48;2.38;;;;;;;12.44;100.00;99691.53;5057437;28;20052;-73
2023/11/14 10:21:28;;;;;;;14.77;2.50;;;;;;;12.46;100.00;99679.03;5041944;28;20103;-73
2023/11/14 10:24:13;;;;;;;14.88;2.38;;;;;;;12.35;100.00;99650.53;5045001;28;20048;-73
2023/11/14 10:26:52;;;;;;;10.27;2.40;;;;;;;12.52;100.00;99652.06;5076513;28;20067;-74
2023/11/14 10:29:23;;;;;;;12.70;2.20;;;;;;;12.48;100.00;99655.88;5039822;28;20045;-73
2023/11/14 10:31:52;;;;;;;16.02;2.90;;;;;;;12.45;100.00;99659.59;5031157;28;20064;-73
2023/11/14 10:34:26;;;;;;;8.83;2.17;;;;;;;12.46;100.00;99655.97;5042019;28;20084;-73
2023/11/14 10:36:56;;;;;;;16.80;3.45;;;;;;;12.50;100.00;99653.97;5060876;28;20043;-73
2023/11/14 10:39:27;;;;;;;13.82;2.95;;;;;;;12.55;100.00;99636.78;5045700;28;20132;-74
2023/11/14 10:41:57;;;;;;;14.07;2.75;;;;;;;12.54;100.00;99623.63;5038338;28;20505;-73
2023/11/14 10:44:25;;;;;;;17.10;2.90;;;;;;;12.65;100.00;99648.50;5045657;28;20472;-74
2023/11/14 10:46:58;;;;;;;15.70;2.70;;;;;;;12.63;100.00;99615.88;5042791;28;21354;-73
2023/11/14 10:49:30;;;;;;;20.98;3.03;;;;;;;12.69;100.00;99613.75;5042663;28;20055;-74
2023/11/14 10:52:01;;;;;;;14.48;2.50;;;;;;;12.63;100.00;99602.59;5046076;28;20095;-73
2023/11/14 10:54:31;;;;;;;14.43;3.10;;;;;;;12.65;100.00;99605.13;5044298;28;20045;-73
2023/11/14 10:57:01;;;;;;;15.73;2.58;;;;;;;12.66;100.00;99585.59;5048505;28;20045;-73
2023/11/14 10:59:42;;;;;;;11.40;2.17;;;;;;;12.65;100.00;99571.47;5036168;28;20492;-74
2023/11/14 11:02:14;;;;;;;15.25;2.50;;;;;;;12.70;100.00;99589.75;5041056;28;20048;-73
2023/11/14 11:04:43;;;;;;;10.68;2.47;;;;;;;12.79;100.00;99593.56;5044481;28;20482;-74
2023/11/14 11:07:14;;;;;;;19.63;3.28;;;;;;;12.79;100.00;99594.41;5044891;28;20149;-72
2023/11/14 11:09:42;;;;;;;12.65;2.40;;;;;;;12.84;100.00;99583.47;5045553;28;20053;-73
2023/11/14 11:12:11;;;;;;;16.75;2.95;;;;;;;12.89;100.00;99573.41;5034807;28;20049;-73
2023/11/14 11:14:42;;;;;;;16.63;2.67;;;;;;;12.83;100.00;99569.34;5044251;28;20060;-73
2023/11/14 11:17:11;;;;;;;10.82;2.67;;;;;;;12.85;100.00;99562.13;5058683;28;20049;-74
2023/11/14 11:19:52;;;;;;;14.75;3.28;;;;;;;12.86;100.00;99563.81;5058624;28;20069;-73
2023/11/14 11:22:23;;;;;;;12.65;3.40;;;;;;;12.86;100.00;99557.66;5048062;28;20079;-73
2023/11/14 11:25:26;;;;;;;12.75;2.50;;;;;;;12.79;100.00;99554.56;5057352;28;20053;-73
2023/11/14 11:27:57;;;;;;;17.38;2.95;;;;;;;12.76;100.00;99561.88;5045136;28;20323;-75
2023/11/14 11:30:27;;;;;;;16.10;2.63;;;;;;;12.79;100.00;99562.53;5040762;28;20045;-73
2023/11/14 11:32:58;;;;;;;11.27;2.50;;;;;;;12.87;100.00;99554.91;5039252;28;20053;-74
2023/11/14 11:35:30;;;;;;;12.70;2.50;;;;;;;12.99;100.00;99547.88;5047142;28;20092;-74